WetterOnline ( https://www.wetteronline.de )

Wetter aktuell Roth

Aktuelles Wetter: Weißenburg (424m)

6-stündlich | Neueste Meldungen
Ortszeit Temperatur Wetter
Fr, 03.12. 19:00 0.1° C bewölkt
Fr, 03.12. 13:00 0.1° C bewölkt
Fr, 03.12. 7:00 -0.2° C bedeckt
Fr, 03.12. 1:00 0.2° C Schneegriesel
Do, 02.12. 19:00 0.7° C bewölkt
Do, 02.12. 13:00 2.3° C leichter Regen
Do, 02.12. 7:00 3.8° C bewölkt
Do, 02.12. 1:00 5.5° C Sprühregen
Ortszeit Temperatur Wetter
Fr, 03.12. 23:30 -0.4° C bewölkt
Fr, 03.12. 23:20 -0.4° C bewölkt
Fr, 03.12. 23:10 -0.5° C bewölkt
Fr, 03.12. 23:00 -0.7° C bedeckt
Fr, 03.12. 22:50 -0.7° C bedeckt
Fr, 03.12. 22:40 -0.7° C bewölkt
Fr, 03.12. 22:30 -0.8° C wolkig
Fr, 03.12. 22:00 -0.6° C wolkig
Fr, 03.12. 21:30 -0.5° C leicht bewölkt
Fr, 03.12. 21:00 -0.4° C leicht bewölkt
Fr, 03.12. 20:30 -0.2° C wolkenlos
Ortszeit Relative Feuchte Sichtweite
Fr, 03.12. 19:00 77% 60 km
Fr, 03.12. 13:00 73% 55 km
Fr, 03.12. 7:00 83% 40 km
Fr, 03.12. 1:00 86% 28 km
Do, 02.12. 19:00 92% 30 km
Do, 02.12. 13:00 88% 26 km
Do, 02.12. 7:00 82% 60 km
Do, 02.12. 1:00 82% 60 km
Ortszeit Relative Feuchte Sichtweite
Fr, 03.12. 23:30 75% 60 km
Fr, 03.12. 23:20 75% -
Fr, 03.12. 23:10 76% -
Fr, 03.12. 23:00 77% 55 km
Fr, 03.12. 22:50 77% -
Fr, 03.12. 22:40 78% -
Fr, 03.12. 22:30 78% 50 km
Fr, 03.12. 22:00 78% 50 km
Fr, 03.12. 21:30 79% 45 km
Fr, 03.12. 21:00 80% 45 km
Fr, 03.12. 20:30 78% 50 km
Ortszeit Niederschlagsmenge Niederschlagsart
Fr, 03.12. 19:00 0.1 l/m2 in 12 Std. -
Fr, 03.12. 13:00 0.1 l/m2 in 6 Std. Schnee
Fr, 03.12. 7:00 2 l/m2 in 12 Std. Schnee
Fr, 03.12. 1:00 0.1 l/m2 in 6 Std. Schnee, Sprühregen
Do, 02.12. 19:00 3 l/m2 in 12 Std. Schnee, Regen
Do, 02.12. 13:00 1 l/m2 in 6 Std. Schnee, Regen
Do, 02.12. 7:00 0.1 l/m2 in 12 Std. Regen
Do, 02.12. 1:00 0.1 l/m2 in 6 Std. Regen
Ortszeit Niederschlagsmenge Niederschlagsart
Fr, 03.12. 23:30 0.0 l/m2 in 1 Std. -
Fr, 03.12. 23:20 keine Meldung -
Fr, 03.12. 23:10 keine Meldung -
Fr, 03.12. 23:00 0.0 l/m2 in 1 Std. -
Fr, 03.12. 22:50 keine Meldung -
Fr, 03.12. 22:40 keine Meldung -
Fr, 03.12. 22:30 0.0 l/m2 in 1 Std. -
Fr, 03.12. 22:00 0.0 l/m2 in 1 Std. -
Fr, 03.12. 21:30 0.0 l/m2 in 1 Std. -
Fr, 03.12. 21:00 0.0 l/m2 in 1 Std. -
Fr, 03.12. 20:30 0.0 l/m2 in 1 Std. -
Ortszeit Stärke Spitze Richtung
km/h Bft. km/h Grad Sektor
Fr, 03.12. 19:00 17 3 28 200° S
Fr, 03.12. 13:00 11 2 29 250° W
Fr, 03.12. 7:00 17 3 35 270° W
Fr, 03.12. 1:00 15 3 26 270° W
Do, 02.12. 19:00 15 3 22 310° NW
Do, 02.12. 13:00 13 3 39 320° NW
Do, 02.12. 7:00 18 3 40 220° SW
Do, 02.12. 1:00 22 4 58 260° W
Ortszeit Stärke Spitze Richtung
km/h Bft. km/h Grad Sektor
Fr, 03.12. 23:30 20 4 28 190° S
Fr, 03.12. 23:20 20 4 - 190° S
Fr, 03.12. 23:10 19 3 - 180° S
Fr, 03.12. 23:00 20 4 26 180° S
Fr, 03.12. 22:50 20 4 - 180° S
Fr, 03.12. 22:40 19 3 - 180° S
Fr, 03.12. 22:30 18 3 25 170° S
Fr, 03.12. 22:00 22 4 29 180° S
Fr, 03.12. 21:30 20 4 28 180° S
Fr, 03.12. 21:00 18 3 29 180° S
Fr, 03.12. 20:30 19 3 28 190° S
Ortszeit Untergrenze Bedeckung Gattung
total tief tief mittel hoch
Fr, 03.12. 19:00 3600 m 7/8 7/8 - - -
Fr, 03.12. 13:00 750 m 7/8 7/8 - - -
Fr, 03.12. 7:00 1140 m 8/8 8/8 - - -
Fr, 03.12. 1:00 420 m 7/8 7/8 - - -
Do, 02.12. 19:00 270 m 7/8 7/8 - - -
Do, 02.12. 13:00 480 m 8/8 8/8 - - -
Do, 02.12. 7:00 510 m 7/8 7/8 - - -
Do, 02.12. 1:00 600 m 7/8 7/8 - - -
Ortszeit Bedeckungsgrad in Achtel und Wolkenuntergrenze
Fr, 03.12. 23:30 2(1410m) 4(2700m) 8(4500m)
Fr, 03.12. 23:20 2(1410m) 4(2700m) 8(4500m)
Fr, 03.12. 23:10 2(1440m) 5(2700m) 8(4500m)
Fr, 03.12. 23:00 7(4800m) 8(5700m) 8(10500m)
Fr, 03.12. 22:50 7(4800m) 8(5700m) 8(10500m)
Fr, 03.12. 22:40 4(4800m) 8(9000m) 8(10500m)
Fr, 03.12. 22:30 2(5400m) 8(9000m) 8(10500m)
Fr, 03.12. 22:00 1(1800m) 7(6600m) 7(10500m)
Fr, 03.12. 21:30 1(1800m) 3(6600m)
Fr, 03.12. 21:00 2(1800m)
Fr, 03.12. 20:30 keine Wolken
Ortszeit Luftdruck NN (hPa) Tendenz (hPa in 3 Std.)
Fr, 03.12. 19:00 1015 - 0,7
Fr, 03.12. 13:00 1017 - 0,5
Fr, 03.12. 7:00 1015 + 2,0
Fr, 03.12. 1:00 1011 + 1,9
Do, 02.12. 19:00 1005 + 2,4
Do, 02.12. 13:00 1001 - 0,4
Do, 02.12. 7:00 1001 0,0
Do, 02.12. 1:00 999 + 0,1
Ortszeit Luftdruck NN (hPa) Tendenz (hPa in 3 Std.)
Fr, 03.12. 23:30 1011 - 2,5
Fr, 03.12. 23:20 1011 keine Meldung
Fr, 03.12. 23:10 1011 keine Meldung
Fr, 03.12. 23:00 1011 - 2,6
Fr, 03.12. 22:50 1011 keine Meldung
Fr, 03.12. 22:40 1011 keine Meldung
Fr, 03.12. 22:30 1012 - 2,2
Fr, 03.12. 22:00 1012 - 2,2
Fr, 03.12. 21:30 1013 - 2,0
Fr, 03.12. 21:00 1013 - 1,8
Fr, 03.12. 20:30 1014 - 1,5
Ortszeit Schneehöhe (cm)
Fr, 03.12. 19:00 2
Fr, 03.12. 13:00 2
Fr, 03.12. 7:00 2
Fr, 03.12. 1:00 0
Do, 02.12. 19:00 0
Do, 02.12. 13:00 0
Do, 02.12. 7:00 0
Do, 02.12. 1:00 0
Ortszeit Schneehöhe (cm)
Fr, 03.12. 23:30 2
Fr, 03.12. 23:20 2
Fr, 03.12. 23:10 2
Fr, 03.12. 23:00 2
Fr, 03.12. 22:50 2
Fr, 03.12. 22:40 2
Fr, 03.12. 22:30 2
Fr, 03.12. 22:00 2
Fr, 03.12. 21:30 2
Fr, 03.12. 21:00 2
Fr, 03.12. 20:30 2
Link zu dieser Seite / Seite empfehlen

Das Wetter in ...